Time;durP1;ratioP1;P1;durP2;ratioP2;P2;SDS_P1;SDS_P2;PMS_P1;PMS_P2;Temp;Humidity;BMP_temperature;BMP_pressure;BME280_temperature;BME280_humidity;BME280_pressure;Samples;Min_cycle;Max_cycle;Signal;HPM_P1;HPM_P2
2024/04/09 00:01:24;;;;;;;14.90;10.05;;;16.20;99.90;;;;;;5501622;26;20494;-93
2024/04/09 00:03:51;;;;;;;12.10;6.57;;;16.20;99.90;;;;;;5508696;26;20025;-93
2024/04/09 00:06:19;;;;;;;16.58;10.88;;;16.10;99.90;;;;;;5507252;26;20040;-93
2024/04/09 00:08:47;;;;;;;15.13;10.32;;;16.10;99.90;;;;;;5490087;26;20037;-93
2024/04/09 00:11:23;;;;;;;16.50;10.70;;;16.10;99.90;;;;;;5495534;26;20013;-94
2024/04/09 00:13:57;;;;;;;16.20;8.85;;;16.20;99.90;;;;;;5510444;25;20017;-93
2024/04/09 00:16:27;;;;;;;15.88;7.50;;;16.10;99.90;;;;;;5514024;26;20026;-94
2024/04/09 00:18:55;;;;;;;15.88;11.23;;;16.00;99.90;;;;;;5502219;26;20001;-93
2024/04/09 00:21:22;;;;;;;16.20;11.05;;;16.10;99.90;;;;;;5498040;26;20380;-94
2024/04/09 00:23:49;;;;;;;13.57;7.53;;;16.10;99.90;;;;;;5485355;26;19994;-93
2024/04/09 00:26:17;;;;;;;15.20;10.27;;;16.10;99.90;;;;;;5508008;26;20068;-94
2024/04/09 00:28:44;;;;;;;14.82;11.30;;;16.10;99.90;;;;;;5493402;26;20004;-94
2024/04/09 00:31:10;;;;;;;12.82;7.05;;;16.10;99.90;;;;;;5500056;26;20755;-94
2024/04/09 00:33:38;;;;;;;15.73;11.05;;;16.10;99.90;;;;;;5504346;26;20038;-94
2024/04/09 00:36:05;;;;;;;13.70;8.27;;;16.10;99.90;;;;;;5496952;26;20034;-94
2024/04/09 00:38:33;;;;;;;14.80;11.27;;;16.00;99.90;;;;;;5495867;26;19998;-94
2024/04/09 00:40:59;;;;;;;17.30;11.23;;;16.10;99.90;;;;;;5503812;26;20033;-94
2024/04/09 00:43:27;;;;;;;17.48;11.90;;;16.10;99.90;;;;;;5496974;26;20008;-93
2024/04/09 00:45:55;;;;;;;17.05;11.77;;;16.10;99.90;;;;;;5504722;26;20046;-93
2024/04/09 00:48:23;;;;;;;12.80;6.15;;;16.10;99.90;;;;;;5502933;26;20026;-93
2024/04/09 00:50:50;;;;;;;16.05;6.05;;;15.90;99.90;;;;;;5494943;26;20016;-93
2024/04/09 00:53:19;;;;;;;12.57;6.07;;;15.80;99.90;;;;;;5494940;26;19998;-94
2024/04/09 00:55:49;;;;;;;14.98;11.07;;;15.80;99.90;;;;;;5499746;26;20035;-93
2024/04/09 00:58:17;;;;;;;15.73;11.02;;;15.80;99.90;;;;;;5502282;25;20401;-93
2024/04/09 01:00:44;;;;;;;14.35;10.57;;;15.90;99.90;;;;;;5508201;26;20008;-93
2024/04/09 01:03:12;;;;;;;18.88;11.38;;;15.90;99.90;;;;;;5495102;26;19998;-93
2024/04/09 01:05:39;;;;;;;14.80;11.10;;;15.90;99.90;;;;;;5472501;26;21937;-93
2024/04/09 01:08:06;;;;;;;12.70;7.55;;;15.80;99.90;;;;;;5510343;26;20012;-94
2024/04/09 01:10:33;;;;;;;15.73;9.05;;;15.80;99.90;;;;;;5502561;26;20005;-94
2024/04/09 01:13:00;;;;;;;17.38;9.77;;;15.70;99.90;;;;;;5498831;26;20013;-93
2024/04/09 01:15:27;;;;;;;19.40;11.48;;;15.70;99.90;;;;;;5501005;26;20026;-93
2024/04/09 01:17:56;;;;;;;15.88;11.05;;;15.70;99.90;;;;;;5491863;26;19994;-93
2024/04/09 01:20:23;;;;;;;13.00;7.00;;;15.80;99.90;;;;;;5495034;26;20005;-94
2024/04/09 01:22:50;;;;;;;13.82;8.95;;;15.70;99.90;;;;;;5503270;25;20037;-93
2024/04/09 01:25:17;;;;;;;16.90;10.65;;;15.70;99.90;;;;;;5497246;26;19997;-93
2024/04/09 01:27:44;;;;;;;15.75;11.10;;;15.70;99.90;;;;;;5489352;26;20022;-94
2024/04/09 01:30:12;;;;;;;18.92;10.80;;;15.70;99.90;;;;;;5497113;26;20381;-93
2024/04/09 01:32:40;;;;;;;16.45;10.43;;;15.80;99.90;;;;;;5488694;26;20028;-93
2024/04/09 01:35:07;;;;;;;19.45;11.70;;;15.80;99.90;;;;;;5489837;26;19999;-94
2024/04/09 01:37:36;;;;;;;14.27;7.70;;;15.80;99.90;;;;;;5485088;26;20109;-93
2024/04/09 01:40:04;;;;;;;16.98;11.57;;;15.70;99.90;;;;;;5498673;26;20033;-93
2024/04/09 01:42:31;;;;;;;18.58;12.75;;;15.80;99.90;;;;;;5489221;26;20496;-93
2024/04/09 01:44:58;;;;;;;15.40;8.05;;;15.90;99.90;;;;;;5508786;26;20034;-93
2024/04/09 01:47:25;;;;;;;12.95;6.45;;;15.80;99.90;;;;;;5485321;26;19998;-94
2024/04/09 01:49:52;;;;;;;19.10;11.02;;;15.80;99.90;;;;;;5496680;26;20039;-93
2024/04/09 01:52:22;;;;;;;20.73;11.90;;;15.90;99.90;;;;;;5500125;26;19993;-93
2024/04/09 01:54:50;;;;;;;13.25;5.90;;;15.90;99.90;;;;;;5488435;26;20386;-94
2024/04/09 01:57:17;;;;;;;16.95;11.20;;;15.90;99.90;;;;;;5504000;26;19998;-93
2024/04/09 01:59:44;;;;;;;17.60;7.55;;;15.90;99.90;;;;;;5494191;26;19998;-93
2024/04/09 02:02:10;;;;;;;19.38;12.25;;;15.80;99.90;;;;;;5491934;26;20552;-94
2024/04/09 02:04:37;;;;;;;18.10;12.05;;;15.90;99.90;;;;;;5501476;26;20012;-93
2024/04/09 02:07:05;;;;;;;20.75;7.45;;;15.90;99.90;;;;;;5504042;26;20021;-94
2024/04/09 02:09:31;;;;;;;18.50;11.45;;;15.90;99.90;;;;;;5499874;25;20026;-92
2024/04/09 02:11:58;;;;;;;17.00;9.68;;;15.90;99.90;;;;;;5503490;26;20372;-94
2024/04/09 02:14:25;;;;;;;19.95;12.55;;;15.80;99.90;;;;;;5493875;26;19994;-94
2024/04/09 02:16:52;;;;;;;19.48;11.50;;;15.80;99.90;;;;;;5491192;26;20422;-94
2024/04/09 02:19:19;;;;;;;19.85;12.20;;;15.90;99.90;;;;;;5493464;26;19994;-93
2024/04/09 02:21:46;;;;;;;20.40;11.80;;;15.90;99.90;;;;;;5494132;26;20035;-94
2024/04/09 02:24:13;;;;;;;19.52;11.88;;;15.90;99.90;;;;;;5495843;26;20030;-94
2024/04/09 02:26:40;;;;;;;17.30;7.07;;;15.90;99.90;;;;;;5488314;26;20002;-94
2024/04/09 02:29:08;;;;;;;23.23;12.85;;;15.80;99.90;;;;;;5495994;26;20006;-94
2024/04/09 02:31:35;;;;;;;14.77;7.40;;;15.80;99.90;;;;;;5495399;26;20008;-94
2024/04/09 02:34:02;;;;;;;17.10;12.57;;;15.70;99.90;;;;;;5496274;26;20480;-93
2024/04/09 02:36:29;;;;;;;12.63;6.90;;;15.60;99.90;;;;;;5498725;26;20483;-93
2024/04/09 02:38:57;;;;;;;17.50;11.82;;;15.50;99.90;;;;;;5495295;25;20341;-94
2024/04/09 02:41:24;;;;;;;17.95;11.50;;;15.50;99.90;;;;;;5484368;26;20033;-93
2024/04/09 02:43:51;;;;;;;22.17;13.38;;;15.50;99.90;;;;;;5502825;26;20016;-93
2024/04/09 02:46:18;;;;;;;19.92;8.40;;;15.50;99.90;;;;;;5487021;26;20370;-94
2024/04/09 02:48:45;;;;;;;15.85;7.82;;;15.50;99.90;;;;;;5504018;26;20025;-94
2024/04/09 02:51:12;;;;;;;19.67;12.90;;;15.40;99.90;;;;;;5483675;26;20039;-94
2024/04/09 02:53:38;;;;;;;20.05;13.27;;;15.50;99.90;;;;;;5498816;26;20011;-94
2024/04/09 02:56:08;;;;;;;14.60;8.90;;;15.50;99.90;;;;;;5497539;26;20361;-92
2024/04/09 02:58:35;;;;;;;20.70;9.02;;;15.50;99.90;;;;;;5493997;26;20008;-94
2024/04/09 03:01:12;;;;;;;20.10;13.52;;;15.40;99.90;;;;;;5485400;26;20013;-94
2024/04/09 03:03:39;;;;;;;14.68;8.35;;;15.50;99.90;;;;;;5491322;26;20025;-94
2024/04/09 03:06:07;;;;;;;20.13;13.23;;;15.50;99.90;;;;;;5482695;26;19998;-93
2024/04/09 03:08:35;;;;;;;18.73;12.15;;;15.50;99.90;;;;;;5492999;26;19995;-93
2024/04/09 03:11:08;;;;;;;18.15;12.27;;;15.50;99.90;;;;;;5497023;26;20013;-93
2024/04/09 03:13:35;;;;;;;17.40;12.50;;;15.50;99.90;;;;;;5500050;26;20022;-93
2024/04/09 03:16:13;;;;;;;17.92;12.43;;;15.50;99.90;;;;;;5483521;26;20481;-91
2024/04/09 03:18:40;;;;;;;20.63;13.55;;;15.60;99.90;;;;;;5487126;26;20008;-93
2024/04/09 03:21:08;;;;;;;18.67;12.38;;;15.50;99.90;;;;;;5487746;26;20026;-94
2024/04/09 03:23:35;;;;;;;13.82;7.25;;;15.50;99.90;;;;;;5502976;26;20033;-94
2024/04/09 03:26:02;;;;;;;18.92;13.15;;;15.50;99.90;;;;;;5484197;26;20568;-93
2024/04/09 03:28:29;;;;;;;18.35;13.50;;;15.50;99.90;;;;;;5494473;26;20504;-93
2024/04/09 03:30:57;;;;;;;17.05;8.40;;;15.50;99.90;;;;;;5490143;26;19998;-94
2024/04/09 03:33:24;;;;;;;18.70;13.07;;;15.50;99.90;;;;;;5496905;26;19997;-92
2024/04/09 03:35:52;;;;;;;13.25;7.65;;;15.50;99.90;;;;;;5495010;26;20508;-94
2024/04/09 03:38:19;;;;;;;16.75;8.93;;;15.40;99.90;;;;;;5488279;26;20373;-93
2024/04/09 03:40:53;;;;;;;18.27;12.43;;;15.30;99.90;;;;;;5497628;25;20004;-94
2024/04/09 03:43:20;;;;;;;17.17;13.45;;;15.30;99.90;;;;;;5482731;26;19996;-94
2024/04/09 03:46:04;;;;;;;14.30;7.32;;;15.20;99.90;;;;;;5502626;26;20034;-94
2024/04/09 03:48:30;;;;;;;12.13;6.05;;;15.10;99.90;;;;;;5502211;26;19994;-94
2024/04/09 03:50:58;;;;;;;15.18;10.60;;;15.00;99.90;;;;;;5496853;26;20381;-93
2024/04/09 03:53:25;;;;;;;17.63;11.00;;;15.00;99.90;;;;;;5495596;26;20002;-93
2024/04/09 03:55:59;;;;;;;16.25;10.75;;;14.90;99.90;;;;;;5502388;26;20029;-93
2024/04/09 03:58:38;;;;;;;16.60;11.45;;;15.00;99.90;;;;;;5493323;26;20016;-94
2024/04/09 04:01:05;;;;;;;12.18;5.88;;;14.90;99.90;;;;;;5498693;26;20053;-94
2024/04/09 04:03:33;;;;;;;15.95;7.43;;;14.80;99.90;;;;;;5459418;26;20033;-93
2024/04/09 04:06:00;;;;;;;15.70;11.00;;;14.70;99.90;;;;;;5493179;26;20026;-94
2024/04/09 04:08:29;;;;;;;17.38;11.20;;;14.70;99.90;;;;;;5491081;26;20104;-94
2024/04/09 04:10:57;;;;;;;14.80;5.60;;;14.80;99.90;;;;;;5483428;26;20364;-93
2024/04/09 04:13:26;;;;;;;10.50;5.35;;;14.70;99.90;;;;;;5499227;26;20004;-94
2024/04/09 04:16:05;;;;;;;12.07;6.68;;;14.70;99.90;;;;;;5483306;26;20804;-94
2024/04/09 04:18:39;;;;;;;11.90;6.50;;;14.70;99.90;;;;;;5495541;25;20018;-93
2024/04/09 04:21:12;;;;;;;11.27;4.55;;;14.70;99.90;;;;;;5479602;26;20012;-93
2024/04/09 04:23:40;;;;;;;11.07;5.85;;;14.70;99.90;;;;;;5486267;25;20021;-93
2024/04/09 04:26:08;;;;;;;15.55;8.98;;;14.70;99.90;;;;;;5504381;26;20033;-94
2024/04/09 04:28:37;;;;;;;12.95;6.07;;;14.70;99.90;;;;;;5484998;26;20738;-94
2024/04/09 04:31:09;;;;;;;15.70;5.93;;;14.70;99.90;;;;;;5490124;26;20353;-93
2024/04/09 04:33:37;;;;;;;16.80;9.50;;;14.60;99.90;;;;;;5493518;26;19993;-93
2024/04/09 04:36:08;;;;;;;10.75;4.80;;;14.60;99.90;;;;;;5493635;26;19998;-93
2024/04/09 04:38:35;;;;;;;13.15;7.72;;;14.60;99.90;;;;;;5483392;26;20030;-94
2024/04/09 04:41:02;;;;;;;11.88;6.80;;;14.60;99.90;;;;;;5484332;26;20360;-93
2024/04/09 04:43:31;;;;;;;12.13;3.90;;;14.60;99.90;;;;;;5501664;26;19994;-93
2024/04/09 04:45:58;;;;;;;10.23;5.97;;;14.60;99.90;;;;;;5493438;26;20022;-93
2024/04/09 04:48:25;;;;;;;9.45;3.30;;;14.60;99.90;;;;;;5494680;26;20001;-93
2024/04/09 04:50:52;;;;;;;9.18;4.20;;;14.50;99.90;;;;;;5494442;26;20004;-93
2024/04/09 04:53:19;;;;;;;10.60;6.32;;;14.50;99.90;;;;;;5498270;26;19995;-93
2024/04/09 04:55:49;;;;;;;11.98;6.15;;;14.50;99.90;;;;;;5504845;26;20030;-91
2024/04/09 04:58:17;;;;;;;10.98;4.25;;;14.50;99.90;;;;;;5466192;26;20034;-93
2024/04/09 05:00:45;;;;;;;10.75;6.78;;;14.40;99.90;;;;;;5487425;26;20009;-93
2024/04/09 05:03:12;;;;;;;12.02;6.93;;;14.40;99.90;;;;;;5490900;26;20009;-93
2024/04/09 05:05:39;;;;;;;8.00;3.30;;;14.50;99.90;;;;;;5490491;26;20608;-93
2024/04/09 05:08:06;;;;;;;14.23;7.28;;;14.50;99.90;;;;;;5488765;26;20012;-94
2024/04/09 05:10:33;;;;;;;11.20;7.20;;;14.40;99.90;;;;;;5489788;26;20006;-93
2024/04/09 05:13:00;;;;;;;12.10;8.10;;;14.40;99.90;;;;;;5483143;26;20005;-92
2024/04/09 05:15:27;;;;;;;8.50;4.13;;;14.50;99.90;;;;;;5491241;26;19994;-92
2024/04/09 05:17:54;;;;;;;11.35;8.65;;;14.50;99.90;;;;;;5491896;26;20031;-93
2024/04/09 05:20:27;;;;;;;10.13;4.88;;;14.40;99.90;;;;;;5486868;26;20480;-92
2024/04/09 05:22:56;;;;;;;13.05;8.77;;;14.40;99.90;;;;;;5482827;26;19998;-93
2024/04/09 05:25:23;;;;;;;10.00;4.38;;;14.40;99.90;;;;;;5492671;26;20012;-93
2024/04/09 05:27:50;;;;;;;10.45;4.65;;;14.50;99.90;;;;;;5498822;26;20371;-93
2024/04/09 05:30:17;;;;;;;11.93;9.35;;;14.40;99.90;;;;;;5458241;26;20034;-94
2024/04/09 05:32:43;;;;;;;12.77;4.95;;;14.50;99.90;;;;;;5490292;26;19994;-94
2024/04/09 05:35:14;;;;;;;10.07;4.32;;;14.50;99.90;;;;;;5487336;26;20013;-93
2024/04/09 05:37:42;;;;;;;12.38;5.68;;;14.50;99.90;;;;;;5498501;26;19994;-92
2024/04/09 05:40:09;;;;;;;9.88;4.22;;;14.50;99.90;;;;;;5497153;26;20018;-94
2024/04/09 05:42:44;;;;;;;7.63;3.80;;;14.40;99.90;;;;;;5505507;26;20012;-94
2024/04/09 05:45:15;;;;;;;10.02;4.20;;;14.40;99.90;;;;;;5499089;26;19998;-94
2024/04/09 05:47:42;;;;;;;9.23;6.05;;;14.40;99.90;;;;;;5500712;26;20011;-94
2024/04/09 05:50:10;;;;;;;13.77;10.27;;;14.40;99.90;;;;;;5500961;26;20367;-94
2024/04/09 05:52:37;;;;;;;11.23;4.30;;;14.50;99.90;;;;;;5486509;26;20026;-93
2024/04/09 05:55:05;;;;;;;10.82;8.77;;;14.50;99.90;;;;;;5508841;26;20029;-94
2024/04/09 05:57:36;;;;;;;14.15;9.55;;;14.50;99.90;;;;;;5500491;26;20019;-94
2024/04/09 06:00:11;;;;;;;12.13;4.40;;;14.50;99.90;;;;;;5497091;26;20678;-94
2024/04/09 06:02:44;;;;;;;13.45;8.98;;;14.40;99.90;;;;;;5490592;26;20265;-94
2024/04/09 06:05:10;;;;;;;11.15;4.30;;;14.40;99.90;;;;;;5495966;26;20721;-94
2024/04/09 06:07:37;;;;;;;11.40;7.97;;;14.40;99.90;;;;;;5495183;26;20001;-94
2024/04/09 06:10:05;;;;;;;8.25;3.95;;;14.40;99.90;;;;;;5494370;26;20016;-94
2024/04/09 06:12:32;;;;;;;10.30;4.50;;;14.40;99.90;;;;;;5493857;26;20026;-94
2024/04/09 06:14:59;;;;;;;12.48;5.47;;;14.30;99.90;;;;;;5488978;26;19998;-93
2024/04/09 06:17:26;;;;;;;13.45;9.70;;;14.30;99.90;;;;;;5494548;26;20017;-93
2024/04/09 06:19:57;;;;;;;13.70;10.20;;;14.30;99.90;;;;;;5489137;26;20046;-92
2024/04/09 06:22:24;;;;;;;13.40;10.63;;;14.40;99.90;;;;;;5510231;25;20000;-93
2024/04/09 06:24:50;;;;;;;10.20;4.18;;;14.40;99.90;;;;;;5504071;26;20038;-94
2024/04/09 06:27:17;;;;;;;16.60;10.93;;;14.30;99.90;;;;;;5494613;26;20509;-93
2024/04/09 06:29:44;;;;;;;12.48;4.32;;;14.30;99.90;;;;;;5496331;26;20008;-93
2024/04/09 06:32:11;;;;;;;14.05;11.38;;;14.20;99.90;;;;;;5493998;26;19998;-92
2024/04/09 06:34:38;;;;;;;10.98;4.38;;;14.20;99.90;;;;;;5453208;26;20498;-91
2024/04/09 06:37:05;;;;;;;12.82;4.50;;;14.10;99.90;;;;;;5497806;25;20008;-92
2024/04/09 06:39:31;;;;;;;14.65;10.95;;;14.00;99.90;;;;;;5494682;26;19994;-91
2024/04/09 06:42:02;;;;;;;11.20;4.63;;;14.00;99.90;;;;;;5489387;26;20006;-92
2024/04/09 06:44:32;;;;;;;11.50;4.93;;;14.00;99.90;;;;;;5490029;26;20004;-92
2024/04/09 06:47:00;;;;;;;17.80;11.38;;;13.90;99.90;;;;;;5493414;25;20438;-93
2024/04/09 06:49:27;;;;;;;9.93;4.82;;;13.90;99.90;;;;;;5489566;26;20470;-92
2024/04/09 06:51:54;;;;;;;15.05;5.55;;;13.90;99.90;;;;;;5479082;26;20014;-93
2024/04/09 06:54:21;;;;;;;13.15;5.22;;;13.80;99.90;;;;;;5479640;26;20005;-92
2024/04/09 06:56:48;;;;;;;18.08;5.38;;;13.70;99.90;;;;;;5479261;25;19998;-93
2024/04/09 06:59:15;;;;;;;17.85;11.30;;;13.70;99.90;;;;;;5481294;26;19998;-93
2024/04/09 07:01:42;;;;;;;13.48;5.60;;;13.70;99.90;;;;;;5487624;26;20001;-93
2024/04/09 07:04:10;;;;;;;16.08;10.75;;;13.70;99.90;;;;;;5484588;26;19994;-93
2024/04/09 07:06:37;;;;;;;17.45;11.88;;;13.80;99.90;;;;;;5491576;26;20005;-94
2024/04/09 07:09:05;;;;;;;8.13;3.67;;;13.80;99.90;;;;;;5480976;26;20004;-93
2024/04/09 07:11:32;;;;;;;20.65;11.15;;;13.80;99.90;;;;;;5490565;26;20010;-92
2024/04/09 07:13:59;;;;;;;13.43;4.85;;;13.90;99.90;;;;;;5487924;26;19997;-93
2024/04/09 07:16:26;;;;;;;15.32;9.60;;;13.90;99.90;;;;;;5447265;26;20005;-93
2024/04/09 07:18:53;;;;;;;17.10;10.23;;;14.00;99.90;;;;;;5497365;25;20026;-93
2024/04/09 07:21:20;;;;;;;15.35;10.38;;;14.10;99.90;;;;;;5497010;26;20008;-93
2024/04/09 07:23:49;;;;;;;14.38;9.40;;;14.10;99.90;;;;;;5496922;26;19999;-92
2024/04/09 07:26:16;;;;;;;13.63;8.82;;;14.20;99.90;;;;;;5489454;26;20016;-94
2024/04/09 07:28:43;;;;;;;11.93;4.20;;;14.20;99.90;;;;;;5495647;26;20000;-93
2024/04/09 07:31:10;;;;;;;12.95;8.00;;;14.20;99.90;;;;;;5493874;26;20037;-93
2024/04/09 07:33:37;;;;;;;10.35;4.05;;;14.20;99.90;;;;;;5490546;26;19993;-93
2024/04/09 07:36:04;;;;;;;10.30;4.30;;;14.10;99.90;;;;;;5491723;26;20016;-93
2024/04/09 07:38:31;;;;;;;14.38;8.75;;;14.10;99.90;;;;;;5481411;26;19998;-93
2024/04/09 07:40:58;;;;;;;16.02;8.93;;;14.10;99.90;;;;;;5479233;26;20006;-94
2024/04/09 07:43:25;;;;;;;14.75;7.72;;;14.10;99.90;;;;;;5480941;26;19995;-93
2024/04/09 07:45:55;;;;;;;8.25;2.80;;;14.20;99.90;;;;;;5491119;26;19998;-94
2024/04/09 07:48:24;;;;;;;6.68;2.83;;;14.00;99.90;;;;;;5477534;26;20007;-93
2024/04/09 07:50:52;;;;;;;12.30;6.53;;;13.90;99.90;;;;;;5476385;26;19994;-94
2024/04/09 07:53:20;;;;;;;14.10;7.65;;;13.90;99.90;;;;;;5478940;26;20008;-93
2024/04/09 07:55:47;;;;;;;9.20;3.30;;;13.90;99.90;;;;;;5486139;26;20392;-93
2024/04/09 07:58:14;;;;;;;10.52;3.15;;;13.80;99.90;;;;;;5483591;26;20038;-93
2024/04/09 08:00:44;;;;;;;10.82;3.42;;;13.70;99.90;;;;;;5500532;25;20002;-94
2024/04/09 08:03:11;;;;;;;15.32;7.18;;;13.70;99.90;;;;;;5492941;26;20348;-93
2024/04/09 08:05:39;;;;;;;10.23;3.03;;;13.70;99.90;;;;;;5492269;26;19998;-94
2024/04/09 08:08:06;;;;;;;13.85;7.00;;;13.70;99.90;;;;;;5498363;26;19994;-93
2024/04/09 08:10:34;;;;;;;13.20;3.95;;;13.70;99.90;;;;;;5496970;26;20020;-93
2024/04/09 08:13:01;;;;;;;10.77;3.38;;;13.70;99.90;;;;;;5504475;26;19997;-93
2024/04/09 08:15:28;;;;;;;11.00;4.00;;;13.60;99.90;;;;;;5497216;26;20632;-93
2024/04/09 08:17:56;;;;;;;10.82;4.50;;;13.60;99.90;;;;;;5503396;26;20008;-94
2024/04/09 08:20:23;;;;;;;10.90;4.28;;;13.60;99.90;;;;;;5490297;26;20008;-92
2024/04/09 08:22:51;;;;;;;16.65;8.82;;;13.60;99.90;;;;;;5500838;26;20543;-94
2024/04/09 08:25:19;;;;;;;11.48;3.92;;;13.70;99.90;;;;;;5485964;26;20464;-94
2024/04/09 08:27:46;;;;;;;9.13;4.18;;;13.80;99.90;;;;;;5484375;26;20008;-93
2024/04/09 08:30:17;;;;;;;14.70;9.20;;;13.80;99.90;;;;;;5491280;26;19994;-94
2024/04/09 08:32:46;;;;;;;14.02;8.93;;;13.90;99.90;;;;;;5502650;26;20004;-93
2024/04/09 08:35:13;;;;;;;16.05;8.32;;;14.00;99.90;;;;;;5491813;26;20022;-93
2024/04/09 08:37:42;;;;;;;12.90;5.60;;;14.00;99.90;;;;;;5495428;26;19998;-93
2024/04/09 08:40:13;;;;;;;12.85;4.25;;;14.00;99.90;;;;;;5493309;26;20085;-94
2024/04/09 08:42:40;;;;;;;14.57;8.10;;;14.00;99.90;;;;;;5494049;26;19998;-93
2024/04/09 08:45:16;;;;;;;10.60;4.20;;;14.00;99.90;;;;;;5500177;26;19994;-93
2024/04/09 08:47:44;;;;;;;13.85;3.60;;;14.00;99.90;;;;;;5495080;26;20034;-93
2024/04/09 08:50:14;;;;;;;10.38;3.42;;;14.00;99.90;;;;;;5512036;26;20045;-93
2024/04/09 08:52:42;;;;;;;10.00;3.72;;;13.90;99.90;;;;;;5499506;25;20022;-93
2024/04/09 08:55:09;;;;;;;15.43;3.00;;;13.90;99.90;;;;;;5493629;25;20026;-93
2024/04/09 08:57:37;;;;;;;9.27;3.13;;;13.90;99.90;;;;;;5489517;26;20004;-94
2024/04/09 09:00:04;;;;;;;13.43;6.78;;;13.90;99.90;;;;;;5491473;26;19998;-94
2024/04/09 09:02:31;;;;;;;12.80;7.07;;;13.90;99.90;;;;;;5491777;26;19994;-94
2024/04/09 09:04:58;;;;;;;6.45;3.00;;;14.00;99.90;;;;;;5497493;26;20030;-93
2024/04/09 09:07:26;;;;;;;10.38;3.55;;;13.90;99.90;;;;;;5494749;26;20339;-93
2024/04/09 09:10:00;;;;;;;10.63;3.53;;;13.90;99.90;;;;;;5491173;26;20026;-94
2024/04/09 09:12:26;;;;;;;13.07;6.93;;;13.90;99.90;;;;;;5487741;26;19994;-93
2024/04/09 09:14:56;;;;;;;12.75;4.25;;;13.90;99.90;;;;;;5484125;26;20008;-92
2024/04/09 09:17:25;;;;;;;8.13;3.75;;;13.90;99.90;;;;;;5492322;26;19997;-93
2024/04/09 09:20:08;;;;;;;11.48;6.35;;;13.80;99.90;;;;;;5497564;26;20008;-92
2024/04/09 09:22:43;;;;;;;9.98;3.67;;;13.90;99.90;;;;;;5506221;26;20006;-91
2024/04/09 09:25:22;;;;;;;9.30;3.75;;;13.90;99.90;;;;;;5496210;26;19997;-93
2024/04/09 09:28:10;;;;;;;8.07;2.53;;;13.90;99.90;;;;;;5495992;26;20006;-95
2024/04/09 09:30:41;;;;;;;10.73;3.35;;;14.00;99.90;;;;;;5498417;25;20369;-93
2024/04/09 09:33:21;;;;;;;10.05;4.50;;;14.20;99.90;;;;;;5499824;26;20577;-94
2024/04/09 09:35:50;;;;;;;9.65;4.50;;;14.30;99.90;;;;;;5503336;26;19997;-94
2024/04/09 09:38:22;;;;;;;6.32;1.63;;;14.40;99.90;;;;;;5500892;26;20004;-94
2024/04/09 09:40:51;;;;;;;7.70;1.92;;;14.40;99.90;;;;;;5491193;26;20026;-93
2024/04/09 09:43:22;;;;;;;7.88;1.65;;;14.30;99.90;;;;;;5489519;25;20004;-93
2024/04/09 09:45:50;;;;;;;4.72;0.73;;;14.10;99.90;;;;;;5499514;26;20011;-93
2024/04/09 09:48:19;;;;;;;1.67;0.30;;;14.00;99.90;;;;;;5492048;26;20009;-93
2024/04/09 09:50:49;;;;;;;7.65;1.55;;;14.00;99.90;;;;;;5482858;26;20476;-94
2024/04/09 09:53:19;;;;;;;2.08;0.63;;;14.10;99.90;;;;;;5487956;26;20004;-93
2024/04/09 09:55:49;;;;;;;7.47;1.77;;;14.10;99.90;;;;;;5486188;26;20386;-93
2024/04/09 09:58:20;;;;;;;2.83;0.28;;;14.20;99.90;;;;;;5483862;26;19998;-94
2024/04/09 10:00:49;;;;;;;2.92;0.80;;;14.20;99.90;;;;;;5492024;26;20025;-94
2024/04/09 10:03:16;;;;;;;4.53;0.93;;;14.30;99.90;;;;;;5488679;26;20003;-93
2024/04/09 10:05:44;;;;;;;7.00;1.40;;;14.40;99.90;;;;;;5498490;26;19998;-93
2024/04/09 10:08:26;;;;;;;3.63;0.80;;;14.40;99.90;;;;;;5485725;26;20002;-93
2024/04/09 10:10:53;;;;;;;6.80;1.60;;;14.40;99.90;;;;;;5488078;26;20491;-94
2024/04/09 10:13:27;;;;;;;7.28;1.60;;;14.50;99.90;;;;;;5495014;26;20008;-93
2024/04/09 10:16:00;;;;;;;3.13;0.65;;;14.50;99.90;;;;;;5484078;26;20057;-92
2024/04/09 10:18:37;;;;;;;3.13;1.00;;;14.30;99.90;;;;;;5501415;26;20551;-94
2024/04/09 10:21:04;;;;;;;7.50;1.60;;;14.00;99.90;;;;;;5469753;26;20041;-94
2024/04/09 10:23:38;;;;;;;2.28;0.70;;;14.10;99.90;;;;;;5485680;26;19998;-93
2024/04/09 10:26:06;;;;;;;1.48;0.63;;;14.00;99.50;;;;;;5488041;26;20214;-92
2024/04/09 10:28:35;;;;;;;7.28;1.58;;;14.10;99.90;;;;;;5485605;26;20457;-94
2024/04/09 10:31:04;;;;;;;2.35;0.75;;;14.30;99.90;;;;;;5482230;26;20037;-94
2024/04/09 10:33:33;;;;;;;3.90;0.80;;;14.20;97.30;;;;;;5494314;26;19998;-93
2024/04/09 10:36:04;;;;;;;2.55;1.00;;;14.20;99.10;;;;;;5504774;26;20021;-94
2024/04/09 10:38:31;;;;;;;8.60;2.20;;;14.20;99.90;;;;;;5458394;26;20033;-93
2024/04/09 10:41:00;;;;;;;3.63;1.13;;;14.10;99.40;;;;;;5483097;26;20020;-93
2024/04/09 10:43:28;;;;;;;2.55;0.80;;;14.00;97.60;;;;;;5488049;26;20009;-93
2024/04/09 10:45:58;;;;;;;6.95;1.60;;;13.90;99.90;;;;;;5490311;26;20523;-94
2024/04/09 10:48:26;;;;;;;7.90;1.70;;;14.00;99.90;;;;;;5499062;26;20011;-93
2024/04/09 10:50:53;;;;;;;8.25;1.58;;;14.10;99.00;;;;;;5504487;25;20050;-95
2024/04/09 10:53:21;;;;;;;7.15;1.70;;;14.10;98.40;;;;;;5498380;26;19993;-94
2024/04/09 10:55:48;;;;;;;6.68;1.63;;;14.20;96.00;;;;;;5484145;26;19998;-94
2024/04/09 10:58:17;;;;;;;6.35;0.77;;;14.30;96.20;;;;;;5499701;26;19994;-93
2024/04/09 11:00:54;;;;;;;1.52;0.40;;;14.20;96.70;;;;;;5489798;25;20595;-94
2024/04/09 11:03:23;;;;;;;2.85;0.55;;;14.20;96.00;;;;;;5497606;26;20006;-95
2024/04/09 11:05:53;;;;;;;2.28;0.68;;;14.20;97.40;;;;;;5493272;26;20104;-94
2024/04/09 11:08:28;;;;;;;8.73;1.63;;;14.30;97.00;;;;;;5488844;26;20382;-94
2024/04/09 11:10:56;;;;;;;3.05;0.82;;;14.50;98.30;;;;;;5490202;26;20029;-94
2024/04/09 11:13:24;;;;;;;8.13;1.60;;;14.70;99.60;;;;;;5488443;26;19998;-94
2024/04/09 11:15:51;;;;;;;4.65;0.95;;;15.00;99.50;;;;;;5492112;26;19995;-95
2024/04/09 11:18:20;;;;;;;8.40;1.52;;;15.10;99.80;;;;;;5510179;26;19994;-93
2024/04/09 11:21:05;;;;;;;9.20;2.13;;;15.10;97.70;;;;;;5489573;26;20018;-94
2024/04/09 11:23:33;;;;;;;3.10;0.90;;;15.10;96.50;;;;;;5488463;26;19997;-94
2024/04/09 11:26:01;;;;;;;7.10;1.70;;;15.00;97.00;;;;;;5496239;26;19994;-93
2024/04/09 11:28:30;;;;;;;4.20;0.90;;;15.00;97.50;;;;;;5503128;25;19997;-94
2024/04/09 11:30:59;;;;;;;1.90;0.52;;;15.00;95.70;;;;;;5501809;25;20012;-94
2024/04/09 11:33:27;;;;;;;4.97;1.20;;;14.90;94.60;;;;;;5493885;26;20009;-93
2024/04/09 11:35:57;;;;;;;8.40;1.58;;;14.90;93.00;;;;;;5495472;26;20005;-93
2024/04/09 11:38:24;;;;;;;4.80;1.23;;;14.80;92.10;;;;;;5490398;25;20573;-94
2024/04/09 11:40:51;;;;;;;5.35;1.40;;;14.90;92.60;;;;;;5489931;26;20352;-94
2024/04/09 11:43:20;;;;;;;3.80;0.50;;;14.90;92.50;;;;;;5505128;26;20008;-93
2024/04/09 11:45:49;;;;;;;6.80;1.60;;;14.80;90.90;;;;;;5493272;26;20012;-93
2024/04/09 11:48:16;;;;;;;6.32;1.60;;;14.60;90.90;;;;;;5493744;25;20030;-92
2024/04/09 11:50:43;;;;;;;4.70;0.82;;;14.40;90.40;;;;;;5500288;26;19995;-93
2024/04/09 11:53:10;;;;;;;5.15;0.90;;;14.20;91.00;;;;;;5495450;26;19997;-93
2024/04/09 11:55:37;;;;;;;7.47;1.80;;;14.00;90.90;;;;;;5489027;26;20026;-93
2024/04/09 11:58:04;;;;;;;6.93;1.40;;;14.10;92.40;;;;;;5507478;26;19997;-94
2024/04/09 12:00:32;;;;;;;8.45;1.50;;;14.00;91.00;;;;;;5488873;26;20004;-92
2024/04/09 12:02:59;;;;;;;3.90;0.65;;;14.10;93.30;;;;;;5501064;25;20007;-93
2024/04/09 12:05:26;;;;;;;0.52;0.20;;;14.00;91.00;;;;;;5487656;26;20026;-93
2024/04/09 12:07:53;;;;;;;2.90;0.70;;;13.90;91.20;;;;;;5486447;26;20013;-93
2024/04/09 12:10:22;;;;;;;8.13;1.80;;;14.00;92.20;;;;;;5495535;26;19994;-93
2024/04/09 12:12:51;;;;;;;5.32;0.93;;;14.10;93.70;;;;;;5485845;26;20005;-93
2024/04/09 12:15:18;;;;;;;1.95;0.50;;;14.10;92.80;;;;;;5487915;26;20008;-93
2024/04/09 12:17:45;;;;;;;7.97;0.60;;;14.10;91.90;;;;;;5491933;26;19997;-91
2024/04/09 12:20:12;;;;;;;6.05;1.50;;;14.10;91.90;;;;;;5485789;26;19998;-94
2024/04/09 12:22:39;;;;;;;7.60;1.50;;;14.20;92.20;;;;;;5489043;26;19994;-93
2024/04/09 12:25:06;;;;;;;2.65;0.60;;;14.30;91.50;;;;;;5482589;26;20009;-93
2024/04/09 12:27:33;;;;;;;5.05;1.25;;;14.20;91.60;;;;;;5482259;26;20384;-94
2024/04/09 12:30:00;;;;;;;2.75;0.50;;;14.20;91.50;;;;;;5498322;26;20330;-94
2024/04/09 12:32:27;;;;;;;8.90;1.80;;;14.20;91.60;;;;;;5486879;26;20003;-92
2024/04/09 12:34:54;;;;;;;1.65;0.57;;;14.20;90.90;;;;;;5491724;26;20008;-92
2024/04/09 12:37:21;;;;;;;2.83;0.80;;;14.00;91.20;;;;;;5498366;26;20367;-93
2024/04/09 12:39:48;;;;;;;6.35;1.00;;;13.90;91.30;;;;;;5494882;26;20450;-93
2024/04/09 12:42:14;;;;;;;5.80;1.33;;;13.80;90.90;;;;;;5493507;26;20005;-93
2024/04/09 12:44:42;;;;;;;6.03;1.00;;;13.80;90.70;;;;;;5495194;26;20002;-92